sensor_id;sensor_type;location;lat;lon;timestamp;P1;durP1;ratioP1;P2;durP2;ratioP2
1380;SDS011;684;48.342;10.096;2023-09-30T00:02:19;25.13;;;11.60;;
1380;SDS011;684;48.342;10.096;2023-09-30T00:04:46;22.20;;;11.03;;
1380;SDS011;684;48.342;10.096;2023-09-30T00:07:12;27.40;;;12.60;;
1380;SDS011;684;48.342;10.096;2023-09-30T00:09:41;24.50;;;12.80;;
1380;SDS011;684;48.342;10.096;2023-09-30T00:12:07;23.63;;;11.77;;
1380;SDS011;684;48.342;10.096;2023-09-30T00:14:34;25.13;;;12.23;;
1380;SDS011;684;48.342;10.096;2023-09-30T00:17:02;23.23;;;11.20;;
1380;SDS011;684;48.342;10.096;2023-09-30T00:19:29;21.30;;;11.50;;
1380;SDS011;684;48.342;10.096;2023-09-30T00:21:58;26.13;;;14.00;;
1380;SDS011;684;48.342;10.096;2023-09-30T00:24:26;27.03;;;14.07;;
1380;SDS011;684;48.342;10.096;2023-09-30T00:26:54;28.43;;;13.70;;
1380;SDS011;684;48.342;10.096;2023-09-30T00:29:21;23.80;;;12.53;;
1380;SDS011;684;48.342;10.096;2023-09-30T00:31:48;24.30;;;12.40;;
1380;SDS011;684;48.342;10.096;2023-09-30T00:34:14;30.03;;;14.20;;
1380;SDS011;684;48.342;10.096;2023-09-30T00:36:41;27.73;;;13.63;;
1380;SDS011;684;48.342;10.096;2023-09-30T00:39:08;28.73;;;13.20;;
1380;SDS011;684;48.342;10.096;2023-09-30T00:41:35;25.40;;;12.30;;
1380;SDS011;684;48.342;10.096;2023-09-30T00:44:05;28.07;;;13.60;;
1380;SDS011;684;48.342;10.096;2023-09-30T00:46:34;27.10;;;12.83;;
1380;SDS011;684;48.342;10.096;2023-09-30T00:49:02;27.57;;;12.07;;
1380;SDS011;684;48.342;10.096;2023-09-30T00:51:29;27.97;;;12.13;;
1380;SDS011;684;48.342;10.096;2023-09-30T00:53:58;26.43;;;12.27;;
1380;SDS011;684;48.342;10.096;2023-09-30T00:56:26;26.77;;;12.20;;
1380;SDS011;684;48.342;10.096;2023-09-30T00:58:54;29.53;;;13.50;;
1380;SDS011;684;48.342;10.096;2023-09-30T01:01:23;27.33;;;13.30;;
1380;SDS011;684;48.342;10.096;2023-09-30T01:03:51;27.50;;;12.03;;
1380;SDS011;684;48.342;10.096;2023-09-30T01:06:17;29.40;;;13.30;;
1380;SDS011;684;48.342;10.096;2023-09-30T01:08:44;26.17;;;11.97;;
1380;SDS011;684;48.342;10.096;2023-09-30T01:11:11;22.60;;;11.20;;
1380;SDS011;684;48.342;10.096;2023-09-30T01:13:40;25.50;;;12.87;;
1380;SDS011;684;48.342;10.096;2023-09-30T01:16:08;26.07;;;12.43;;
1380;SDS011;684;48.342;10.096;2023-09-30T01:18:37;26.30;;;13.43;;
1380;SDS011;684;48.342;10.096;2023-09-30T01:21:05;24.80;;;12.73;;
1380;SDS011;684;48.342;10.096;2023-09-30T01:23:34;26.13;;;11.90;;
1380;SDS011;684;48.342;10.096;2023-09-30T01:26:02;26.60;;;12.10;;
1380;SDS011;684;48.342;10.096;2023-09-30T01:28:30;26.30;;;13.30;;
1380;SDS011;684;48.342;10.096;2023-09-30T01:30:57;23.80;;;12.13;;
1380;SDS011;684;48.342;10.096;2023-09-30T01:33:24;27.40;;;12.70;;
1380;SDS011;684;48.342;10.096;2023-09-30T01:35:51;31.37;;;13.23;;
1380;SDS011;684;48.342;10.096;2023-09-30T01:38:17;27.80;;;14.23;;
1380;SDS011;684;48.342;10.096;2023-09-30T01:40:46;29.10;;;12.00;;
1380;SDS011;684;48.342;10.096;2023-09-30T01:43:13;24.80;;;13.00;;
1380;SDS011;684;48.342;10.096;2023-09-30T01:45:40;24.53;;;11.63;;
1380;SDS011;684;48.342;10.096;2023-09-30T01:48:08;27.73;;;11.07;;
1380;SDS011;684;48.342;10.096;2023-09-30T01:50:36;24.17;;;11.30;;
1380;SDS011;684;48.342;10.096;2023-09-30T01:53:03;23.00;;;10.67;;
1380;SDS011;684;48.342;10.096;2023-09-30T01:55:30;21.30;;;10.20;;
1380;SDS011;684;48.342;10.096;2023-09-30T01:57:58;21.87;;;10.30;;
1380;SDS011;684;48.342;10.096;2023-09-30T02:00:24;25.43;;;11.00;;
1380;SDS011;684;48.342;10.096;2023-09-30T02:02:53;19.87;;;10.13;;
1380;SDS011;684;48.342;10.096;2023-09-30T02:05:20;24.60;;;11.00;;
1380;SDS011;684;48.342;10.096;2023-09-30T02:07:47;19.30;;;8.63;;
1380;SDS011;684;48.342;10.096;2023-09-30T02:10:14;22.23;;;10.10;;
1380;SDS011;684;48.342;10.096;2023-09-30T02:12:42;23.30;;;11.27;;
1380;SDS011;684;48.342;10.096;2023-09-30T02:15:10;23.47;;;10.33;;
1380;SDS011;684;48.342;10.096;2023-09-30T02:17:38;21.23;;;10.60;;
1380;SDS011;684;48.342;10.096;2023-09-30T02:20:05;22.83;;;9.93;;
1380;SDS011;684;48.342;10.096;2023-09-30T02:22:37;27.70;;;12.60;;
1380;SDS011;684;48.342;10.096;2023-09-30T02:25:04;20.63;;;10.53;;
1380;SDS011;684;48.342;10.096;2023-09-30T02:27:32;23.23;;;11.80;;
1380;SDS011;684;48.342;10.096;2023-09-30T02:29:59;22.90;;;10.87;;
1380;SDS011;684;48.342;10.096;2023-09-30T02:32:28;30.87;;;11.57;;
1380;SDS011;684;48.342;10.096;2023-09-30T02:34:55;21.17;;;11.33;;
1380;SDS011;684;48.342;10.096;2023-09-30T02:37:21;24.20;;;11.00;;
1380;SDS011;684;48.342;10.096;2023-09-30T02:39:48;28.33;;;12.43;;
1380;SDS011;684;48.342;10.096;2023-09-30T02:42:15;24.47;;;11.20;;
1380;SDS011;684;48.342;10.096;2023-09-30T02:44:42;26.97;;;11.13;;
1380;SDS011;684;48.342;10.096;2023-09-30T02:47:09;19.20;;;9.67;;
1380;SDS011;684;48.342;10.096;2023-09-30T02:49:37;19.80;;;10.43;;
1380;SDS011;684;48.342;10.096;2023-09-30T02:52:04;22.20;;;9.90;;
1380;SDS011;684;48.342;10.096;2023-09-30T02:54:30;20.83;;;11.03;;
1380;SDS011;684;48.342;10.096;2023-09-30T02:56:57;22.70;;;10.70;;
1380;SDS011;684;48.342;10.096;2023-09-30T02:59:24;23.60;;;10.43;;
1380;SDS011;684;48.342;10.096;2023-09-30T03:01:52;21.77;;;11.43;;
1380;SDS011;684;48.342;10.096;2023-09-30T03:04:19;25.03;;;10.77;;
1380;SDS011;684;48.342;10.096;2023-09-30T03:06:47;23.70;;;10.40;;
1380;SDS011;684;48.342;10.096;2023-09-30T03:09:14;21.50;;;10.40;;
1380;SDS011;684;48.342;10.096;2023-09-30T03:11:41;26.20;;;12.20;;
1380;SDS011;684;48.342;10.096;2023-09-30T03:14:09;22.53;;;11.10;;
1380;SDS011;684;48.342;10.096;2023-09-30T03:16:35;21.00;;;10.07;;
1380;SDS011;684;48.342;10.096;2023-09-30T03:19:04;19.30;;;9.40;;
1380;SDS011;684;48.342;10.096;2023-09-30T03:21:33;20.33;;;9.47;;
1380;SDS011;684;48.342;10.096;2023-09-30T03:24:02;21.53;;;10.30;;
1380;SDS011;684;48.342;10.096;2023-09-30T03:26:29;22.03;;;10.60;;
1380;SDS011;684;48.342;10.096;2023-09-30T03:28:56;22.07;;;11.00;;
1380;SDS011;684;48.342;10.096;2023-09-30T03:31:22;24.60;;;11.97;;
1380;SDS011;684;48.342;10.096;2023-09-30T03:33:50;19.17;;;10.17;;
1380;SDS011;684;48.342;10.096;2023-09-30T03:36:19;22.50;;;11.60;;
1380;SDS011;684;48.342;10.096;2023-09-30T03:38:45;23.00;;;10.63;;
1380;SDS011;684;48.342;10.096;2023-09-30T03:41:13;23.63;;;11.80;;
1380;SDS011;684;48.342;10.096;2023-09-30T03:43:40;23.23;;;11.10;;
1380;SDS011;684;48.342;10.096;2023-09-30T03:46:07;23.50;;;11.17;;
1380;SDS011;684;48.342;10.096;2023-09-30T03:48:34;18.23;;;9.70;;
1380;SDS011;684;48.342;10.096;2023-09-30T03:51:07;22.33;;;9.87;;
1380;SDS011;684;48.342;10.096;2023-09-30T03:53:35;24.77;;;12.47;;
1380;SDS011;684;48.342;10.096;2023-09-30T03:56:02;19.67;;;10.77;;
1380;SDS011;684;48.342;10.096;2023-09-30T03:58:30;21.50;;;10.43;;
1380;SDS011;684;48.342;10.096;2023-09-30T04:00:57;22.60;;;10.40;;
1380;SDS011;684;48.342;10.096;2023-09-30T04:03:25;19.70;;;10.50;;
1380;SDS011;684;48.342;10.096;2023-09-30T04:05:52;20.67;;;10.80;;
1380;SDS011;684;48.342;10.096;2023-09-30T04:08:19;20.67;;;10.17;;
1380;SDS011;684;48.342;10.096;2023-09-30T04:10:47;18.13;;;8.70;;
1380;SDS011;684;48.342;10.096;2023-09-30T04:13:14;20.60;;;10.77;;
1380;SDS011;684;48.342;10.096;2023-09-30T04:15:43;23.67;;;11.70;;
1380;SDS011;684;48.342;10.096;2023-09-30T04:18:11;22.17;;;10.70;;
1380;SDS011;684;48.342;10.096;2023-09-30T04:20:38;22.33;;;11.80;;
1380;SDS011;684;48.342;10.096;2023-09-30T04:23:05;22.53;;;10.10;;
1380;SDS011;684;48.342;10.096;2023-09-30T04:25:35;22.20;;;9.73;;
1380;SDS011;684;48.342;10.096;2023-09-30T04:28:02;23.63;;;11.97;;
1380;SDS011;684;48.342;10.096;2023-09-30T04:30:29;19.57;;;10.70;;
1380;SDS011;684;48.342;10.096;2023-09-30T04:32:59;21.20;;;10.40;;
1380;SDS011;684;48.342;10.096;2023-09-30T04:35:29;22.80;;;10.80;;
1380;SDS011;684;48.342;10.096;2023-09-30T04:37:56;22.80;;;10.60;;
1380;SDS011;684;48.342;10.096;2023-09-30T04:40:26;20.07;;;9.43;;
1380;SDS011;684;48.342;10.096;2023-09-30T04:42:52;18.83;;;10.27;;
1380;SDS011;684;48.342;10.096;2023-09-30T04:45:23;24.00;;;11.17;;
1380;SDS011;684;48.342;10.096;2023-09-30T04:47:51;21.27;;;10.40;;
1380;SDS011;684;48.342;10.096;2023-09-30T04:50:19;21.40;;;10.90;;
1380;SDS011;684;48.342;10.096;2023-09-30T04:52:46;22.63;;;10.40;;
1380;SDS011;684;48.342;10.096;2023-09-30T04:55:13;20.07;;;10.03;;
1380;SDS011;684;48.342;10.096;2023-09-30T04:57:41;20.83;;;10.37;;
1380;SDS011;684;48.342;10.096;2023-09-30T05:00:10;20.70;;;9.67;;
1380;SDS011;684;48.342;10.096;2023-09-30T05:02:38;16.03;;;7.80;;
1380;SDS011;684;48.342;10.096;2023-09-30T05:05:06;18.20;;;8.60;;
1380;SDS011;684;48.342;10.096;2023-09-30T05:07:34;22.13;;;9.50;;
1380;SDS011;684;48.342;10.096;2023-09-30T05:10:01;18.80;;;9.27;;
1380;SDS011;684;48.342;10.096;2023-09-30T05:12:30;20.20;;;9.97;;
1380;SDS011;684;48.342;10.096;2023-09-30T05:14:58;21.20;;;8.93;;
1380;SDS011;684;48.342;10.096;2023-09-30T05:17:25;19.37;;;8.90;;
1380;SDS011;684;48.342;10.096;2023-09-30T05:19:51;21.93;;;10.40;;
1380;SDS011;684;48.342;10.096;2023-09-30T05:22:19;19.97;;;10.00;;
1380;SDS011;684;48.342;10.096;2023-09-30T05:24:50;18.17;;;9.43;;
1380;SDS011;684;48.342;10.096;2023-09-30T05:27:17;21.27;;;8.77;;
1380;SDS011;684;48.342;10.096;2023-09-30T05:29:43;15.10;;;8.20;;
1380;SDS011;684;48.342;10.096;2023-09-30T05:32:10;22.70;;;10.13;;
1380;SDS011;684;48.342;10.096;2023-09-30T05:34:38;20.90;;;9.57;;
1380;SDS011;684;48.342;10.096;2023-09-30T05:37:05;22.97;;;9.80;;
1380;SDS011;684;48.342;10.096;2023-09-30T05:39:31;15.87;;;7.73;;
1380;SDS011;684;48.342;10.096;2023-09-30T05:41:59;20.00;;;9.83;;
1380;SDS011;684;48.342;10.096;2023-09-30T05:44:27;20.13;;;8.80;;
1380;SDS011;684;48.342;10.096;2023-09-30T05:46:54;21.03;;;9.80;;
1380;SDS011;684;48.342;10.096;2023-09-30T05:49:21;20.40;;;9.60;;
1380;SDS011;684;48.342;10.096;2023-09-30T05:51:48;18.80;;;9.63;;
1380;SDS011;684;48.342;10.096;2023-09-30T05:54:16;20.03;;;9.60;;
1380;SDS011;684;48.342;10.096;2023-09-30T05:56:43;18.90;;;8.40;;
1380;SDS011;684;48.342;10.096;2023-09-30T05:59:11;17.37;;;8.70;;
1380;SDS011;684;48.342;10.096;2023-09-30T06:01:38;20.93;;;10.17;;
1380;SDS011;684;48.342;10.096;2023-09-30T06:04:06;20.30;;;9.77;;
1380;SDS011;684;48.342;10.096;2023-09-30T06:06:33;20.10;;;9.87;;
1380;SDS011;684;48.342;10.096;2023-09-30T06:08:59;17.60;;;9.07;;
1380;SDS011;684;48.342;10.096;2023-09-30T06:11:26;19.07;;;9.27;;
1380;SDS011;684;48.342;10.096;2023-09-30T06:13:54;18.87;;;10.27;;
1380;SDS011;684;48.342;10.096;2023-09-30T06:16:22;21.57;;;10.17;;
1380;SDS011;684;48.342;10.096;2023-09-30T06:18:51;16.00;;;8.80;;
1380;SDS011;684;48.342;10.096;2023-09-30T06:21:18;21.63;;;9.67;;
1380;SDS011;684;48.342;10.096;2023-09-30T06:23:45;21.57;;;8.90;;
1380;SDS011;684;48.342;10.096;2023-09-30T06:26:13;20.87;;;9.20;;
1380;SDS011;684;48.342;10.096;2023-09-30T06:28:41;17.13;;;8.47;;
1380;SDS011;684;48.342;10.096;2023-09-30T06:31:08;19.13;;;9.17;;
1380;SDS011;684;48.342;10.096;2023-09-30T06:33:37;15.33;;;8.17;;
1380;SDS011;684;48.342;10.096;2023-09-30T06:36:07;18.80;;;8.90;;
1380;SDS011;684;48.342;10.096;2023-09-30T06:38:35;18.50;;;8.50;;
1380;SDS011;684;48.342;10.096;2023-09-30T06:41:03;19.53;;;8.30;;
1380;SDS011;684;48.342;10.096;2023-09-30T06:43:30;15.93;;;8.37;;
1380;SDS011;684;48.342;10.096;2023-09-30T06:45:57;16.80;;;9.37;;
1380;SDS011;684;48.342;10.096;2023-09-30T06:48:24;16.70;;;8.60;;
1380;SDS011;684;48.342;10.096;2023-09-30T06:50:52;17.17;;;7.90;;
1380;SDS011;684;48.342;10.096;2023-09-30T06:53:19;15.57;;;8.03;;
1380;SDS011;684;48.342;10.096;2023-09-30T06:55:48;13.20;;;7.47;;
1380;SDS011;684;48.342;10.096;2023-09-30T06:58:16;13.40;;;7.77;;
1380;SDS011;684;48.342;10.096;2023-09-30T07:00:46;13.60;;;6.60;;
1380;SDS011;684;48.342;10.096;2023-09-30T07:03:13;15.70;;;7.60;;
1380;SDS011;684;48.342;10.096;2023-09-30T07:05:40;13.83;;;7.50;;
1380;SDS011;684;48.342;10.096;2023-09-30T07:08:09;14.20;;;7.63;;
1380;SDS011;684;48.342;10.096;2023-09-30T07:10:35;14.90;;;7.50;;
1380;SDS011;684;48.342;10.096;2023-09-30T07:13:02;14.93;;;8.30;;
1380;SDS011;684;48.342;10.096;2023-09-30T07:15:31;15.67;;;8.20;;
1380;SDS011;684;48.342;10.096;2023-09-30T07:17:58;15.90;;;7.97;;
1380;SDS011;684;48.342;10.096;2023-09-30T07:20:24;18.50;;;7.50;;
1380;SDS011;684;48.342;10.096;2023-09-30T07:22:51;15.10;;;8.17;;
1380;SDS011;684;48.342;10.096;2023-09-30T07:25:19;14.20;;;7.80;;
1380;SDS011;684;48.342;10.096;2023-09-30T07:27:46;14.63;;;7.50;;
1380;SDS011;684;48.342;10.096;2023-09-30T07:30:13;12.77;;;7.83;;
1380;SDS011;684;48.342;10.096;2023-09-30T07:32:41;14.93;;;7.53;;
1380;SDS011;684;48.342;10.096;2023-09-30T07:35:08;12.50;;;6.90;;
1380;SDS011;684;48.342;10.096;2023-09-30T07:37:35;12.73;;;6.57;;
1380;SDS011;684;48.342;10.096;2023-09-30T07:40:02;14.27;;;7.80;;
1380;SDS011;684;48.342;10.096;2023-09-30T07:42:31;10.67;;;6.40;;
1380;SDS011;684;48.342;10.096;2023-09-30T07:44:58;14.23;;;7.33;;
1380;SDS011;684;48.342;10.096;2023-09-30T07:47:25;11.90;;;6.93;;
1380;SDS011;684;48.342;10.096;2023-09-30T07:49:52;11.20;;;6.17;;
1380;SDS011;684;48.342;10.096;2023-09-30T07:52:18;12.27;;;6.67;;
1380;SDS011;684;48.342;10.096;2023-09-30T07:54:45;17.20;;;7.83;;
1380;SDS011;684;48.342;10.096;2023-09-30T07:57:12;10.87;;;6.33;;
1380;SDS011;684;48.342;10.096;2023-09-30T07:59:41;12.37;;;6.00;;
1380;SDS011;684;48.342;10.096;2023-09-30T08:02:08;10.70;;;6.23;;
1380;SDS011;684;48.342;10.096;2023-09-30T08:04:34;13.30;;;6.77;;
1380;SDS011;684;48.342;10.096;2023-09-30T08:07:01;10.27;;;6.00;;
1380;SDS011;684;48.342;10.096;2023-09-30T08:09:28;10.23;;;5.37;;
1380;SDS011;684;48.342;10.096;2023-09-30T08:11:55;11.70;;;6.20;;
1380;SDS011;684;48.342;10.096;2023-09-30T08:14:22;12.40;;;5.90;;
1380;SDS011;684;48.342;10.096;2023-09-30T08:16:50;10.47;;;6.00;;
1380;SDS011;684;48.342;10.096;2023-09-30T08:19:17;8.47;;;6.03;;
1380;SDS011;684;48.342;10.096;2023-09-30T08:21:45;8.63;;;5.43;;
1380;SDS011;684;48.342;10.096;2023-09-30T08:24:12;8.77;;;5.73;;
1380;SDS011;684;48.342;10.096;2023-09-30T08:26:39;12.20;;;6.17;;
1380;SDS011;684;48.342;10.096;2023-09-30T08:29:06;9.10;;;5.73;;
1380;SDS011;684;48.342;10.096;2023-09-30T08:31:33;10.17;;;6.17;;
1380;SDS011;684;48.342;10.096;2023-09-30T08:34:01;9.67;;;5.23;;
1380;SDS011;684;48.342;10.096;2023-09-30T08:36:29;11.70;;;5.80;;
1380;SDS011;684;48.342;10.096;2023-09-30T08:38:56;10.80;;;5.87;;
1380;SDS011;684;48.342;10.096;2023-09-30T08:41:24;9.77;;;6.00;;
1380;SDS011;684;48.342;10.096;2023-09-30T08:43:57;12.23;;;6.30;;
1380;SDS011;684;48.342;10.096;2023-09-30T08:46:27;8.97;;;5.93;;
1380;SDS011;684;48.342;10.096;2023-09-30T08:48:57;11.00;;;5.47;;
1380;SDS011;684;48.342;10.096;2023-09-30T08:51:26;9.07;;;5.07;;
1380;SDS011;684;48.342;10.096;2023-09-30T08:53:54;10.90;;;6.23;;
1380;SDS011;684;48.342;10.096;2023-09-30T08:56:22;13.03;;;5.67;;
1380;SDS011;684;48.342;10.096;2023-09-30T08:58:53;9.37;;;5.27;;
1380;SDS011;684;48.342;10.096;2023-09-30T09:01:22;8.03;;;4.97;;
1380;SDS011;684;48.342;10.096;2023-09-30T09:03:50;11.63;;;5.80;;
1380;SDS011;684;48.342;10.096;2023-09-30T09:06:17;11.60;;;6.07;;
1380;SDS011;684;48.342;10.096;2023-09-30T09:08:46;9.50;;;5.47;;
1380;SDS011;684;48.342;10.096;2023-09-30T09:11:13;10.10;;;4.90;;
1380;SDS011;684;48.342;10.096;2023-09-30T09:13:47;10.27;;;6.17;;
1380;SDS011;684;48.342;10.096;2023-09-30T09:16:16;9.87;;;5.60;;
1380;SDS011;684;48.342;10.096;2023-09-30T09:18:44;8.47;;;5.53;;
1380;SDS011;684;48.342;10.096;2023-09-30T09:21:13;9.60;;;5.70;;
1380;SDS011;684;48.342;10.096;2023-09-30T09:23:41;12.80;;;5.80;;
1380;SDS011;684;48.342;10.096;2023-09-30T09:26:10;10.00;;;6.10;;
1380;SDS011;684;48.342;10.096;2023-09-30T09:28:37;10.63;;;6.73;;
1380;SDS011;684;48.342;10.096;2023-09-30T09:31:23;7.67;;;5.70;;
1380;SDS011;684;48.342;10.096;2023-09-30T09:33:51;9.70;;;5.33;;
1380;SDS011;684;48.342;10.096;2023-09-30T09:36:18;12.43;;;5.90;;
1380;SDS011;684;48.342;10.096;2023-09-30T09:38:45;11.00;;;5.80;;
1380;SDS011;684;48.342;10.096;2023-09-30T09:41:15;10.13;;;5.80;;
1380;SDS011;684;48.342;10.096;2023-09-30T09:43:42;9.40;;;5.30;;
1380;SDS011;684;48.342;10.096;2023-09-30T09:46:12;9.57;;;5.50;;
1380;SDS011;684;48.342;10.096;2023-09-30T09:48:39;9.80;;;5.97;;
1380;SDS011;684;48.342;10.096;2023-09-30T09:51:06;11.03;;;5.67;;
1380;SDS011;684;48.342;10.096;2023-09-30T09:53:37;8.80;;;5.30;;
1380;SDS011;684;48.342;10.096;2023-09-30T09:56:07;10.93;;;5.47;;
1380;SDS011;684;48.342;10.096;2023-09-30T09:58:36;9.57;;;6.10;;
1380;SDS011;684;48.342;10.096;2023-09-30T10:01:04;9.57;;;5.73;;
1380;SDS011;684;48.342;10.096;2023-09-30T10:03:32;11.37;;;6.70;;
1380;SDS011;684;48.342;10.096;2023-09-30T10:05:59;14.10;;;7.00;;
1380;SDS011;684;48.342;10.096;2023-09-30T10:08:28;8.33;;;5.50;;
1380;SDS011;684;48.342;10.096;2023-09-30T10:10:59;10.17;;;6.10;;
1380;SDS011;684;48.342;10.096;2023-09-30T10:19:17;11.60;;;6.53;;
1380;SDS011;684;48.342;10.096;2023-09-30T10:24:49;10.97;;;6.87;;
1380;SDS011;684;48.342;10.096;2023-09-30T10:27:27;13.70;;;7.77;;
1380;SDS011;684;48.342;10.096;2023-09-30T10:29:59;9.97;;;6.13;;
1380;SDS011;684;48.342;10.096;2023-09-30T10:35:46;10.57;;;6.43;;
1380;SDS011;684;48.342;10.096;2023-09-30T10:41:48;11.40;;;6.30;;
1380;SDS011;684;48.342;10.096;2023-09-30T10:46:59;12.53;;;6.73;;
1380;SDS011;684;48.342;10.096;2023-09-30T10:49:46;10.87;;;6.73;;
1380;SDS011;684;48.342;10.096;2023-09-30T10:52:19;13.00;;;7.37;;
1380;SDS011;684;48.342;10.096;2023-09-30T10:54:48;11.20;;;6.37;;
1380;SDS011;684;48.342;10.096;2023-09-30T10:57:17;12.23;;;7.17;;
1380;SDS011;684;48.342;10.096;2023-09-30T11:00:06;12.53;;;6.80;;
1380;SDS011;684;48.342;10.096;2023-09-30T11:02:39;12.63;;;6.30;;
1380;SDS011;684;48.342;10.096;2023-09-30T11:05:14;12.73;;;6.70;;
1380;SDS011;684;48.342;10.096;2023-09-30T11:07:41;12.40;;;6.87;;
1380;SDS011;684;48.342;10.096;2023-09-30T11:10:09;12.47;;;6.60;;
1380;SDS011;684;48.342;10.096;2023-09-30T11:12:37;11.83;;;6.57;;
1380;SDS011;684;48.342;10.096;2023-09-30T11:15:05;11.63;;;6.90;;
1380;SDS011;684;48.342;10.096;2023-09-30T11:17:34;11.57;;;6.13;;
1380;SDS011;684;48.342;10.096;2023-09-30T11:20:03;11.20;;;6.70;;
1380;SDS011;684;48.342;10.096;2023-09-30T11:22:31;17.33;;;6.90;;
1380;SDS011;684;48.342;10.096;2023-09-30T11:24:59;10.63;;;6.17;;
1380;SDS011;684;48.342;10.096;2023-09-30T11:27:28;13.33;;;7.47;;
1380;SDS011;684;48.342;10.096;2023-09-30T11:29:56;14.90;;;6.90;;
1380;SDS011;684;48.342;10.096;2023-09-30T11:32:23;13.97;;;7.43;;
1380;SDS011;684;48.342;10.096;2023-09-30T11:34:52;14.07;;;7.37;;
1380;SDS011;684;48.342;10.096;2023-09-30T11:37:20;13.63;;;7.97;;
1380;SDS011;684;48.342;10.096;2023-09-30T11:39:47;13.27;;;6.97;;
1380;SDS011;684;48.342;10.096;2023-09-30T11:42:16;15.67;;;7.80;;
1380;SDS011;684;48.342;10.096;2023-09-30T11:44:45;15.37;;;8.27;;
1380;SDS011;684;48.342;10.096;2023-09-30T11:47:13;13.60;;;7.27;;
1380;SDS011;684;48.342;10.096;2023-09-30T11:49:40;14.50;;;7.80;;
1380;SDS011;684;48.342;10.096;2023-09-30T11:52:10;12.27;;;7.23;;
1380;SDS011;684;48.342;10.096;2023-09-30T11:54:40;18.50;;;6.73;;
1380;SDS011;684;48.342;10.096;2023-09-30T11:57:09;14.73;;;6.90;;
1380;SDS011;684;48.342;10.096;2023-09-30T11:59:36;17.03;;;8.17;;
1380;SDS011;684;48.342;10.096;2023-09-30T12:02:06;16.53;;;7.90;;
1380;SDS011;684;48.342;10.096;2023-09-30T12:04:33;15.00;;;8.00;;
1380;SDS011;684;48.342;10.096;2023-09-30T12:07:00;23.30;;;8.23;;
1380;SDS011;684;48.342;10.096;2023-09-30T12:09:27;14.40;;;7.10;;
1380;SDS011;684;48.342;10.096;2023-09-30T12:11:56;19.37;;;7.57;;
1380;SDS011;684;48.342;10.096;2023-09-30T12:14:24;13.30;;;7.70;;
1380;SDS011;684;48.342;10.096;2023-09-30T12:16:51;14.10;;;7.30;;
1380;SDS011;684;48.342;10.096;2023-09-30T12:19:18;15.83;;;7.77;;
1380;SDS011;684;48.342;10.096;2023-09-30T12:21:45;14.00;;;7.93;;
1380;SDS011;684;48.342;10.096;2023-09-30T12:24:13;14.37;;;8.33;;
1380;SDS011;684;48.342;10.096;2023-09-30T12:26:41;13.27;;;7.00;;
1380;SDS011;684;48.342;10.096;2023-09-30T12:29:09;15.70;;;7.60;;
1380;SDS011;684;48.342;10.096;2023-09-30T12:31:36;16.63;;;8.73;;
1380;SDS011;684;48.342;10.096;2023-09-30T12:34:03;15.43;;;7.60;;
1380;SDS011;684;48.342;10.096;2023-09-30T12:36:30;12.47;;;7.20;;
1380;SDS011;684;48.342;10.096;2023-09-30T12:38:57;17.87;;;8.10;;
1380;SDS011;684;48.342;10.096;2023-09-30T12:41:24;16.70;;;8.90;;
1380;SDS011;684;48.342;10.096;2023-09-30T12:43:51;18.13;;;8.33;;
1380;SDS011;684;48.342;10.096;2023-09-30T12:46:19;16.80;;;8.53;;
1380;SDS011;684;48.342;10.096;2023-09-30T12:48:46;14.03;;;8.33;;
1380;SDS011;684;48.342;10.096;2023-09-30T12:51:13;15.97;;;8.30;;
1380;SDS011;684;48.342;10.096;2023-09-30T12:53:40;17.97;;;8.60;;
1380;SDS011;684;48.342;10.096;2023-09-30T12:56:07;15.27;;;8.10;;
1380;SDS011;684;48.342;10.096;2023-09-30T12:58:34;12.63;;;6.87;;
1380;SDS011;684;48.342;10.096;2023-09-30T13:01:00;13.90;;;7.23;;
1380;SDS011;684;48.342;10.096;2023-09-30T13:03:29;19.20;;;7.30;;
1380;SDS011;684;48.342;10.096;2023-09-30T13:05:55;17.33;;;8.30;;
1380;SDS011;684;48.342;10.096;2023-09-30T13:08:22;15.10;;;8.17;;
1380;SDS011;684;48.342;10.096;2023-09-30T13:10:49;13.17;;;6.90;;
1380;SDS011;684;48.342;10.096;2023-09-30T13:13:17;19.23;;;7.80;;
1380;SDS011;684;48.342;10.096;2023-09-30T13:15:44;12.87;;;7.30;;
1380;SDS011;684;48.342;10.096;2023-09-30T13:18:11;14.13;;;7.13;;
1380;SDS011;684;48.342;10.096;2023-09-30T13:20:39;15.57;;;8.30;;
1380;SDS011;684;48.342;10.096;2023-09-30T13:23:06;14.10;;;8.50;;
1380;SDS011;684;48.342;10.096;2023-09-30T13:25:33;16.47;;;8.57;;
1380;SDS011;684;48.342;10.096;2023-09-30T13:28:00;15.43;;;8.10;;
1380;SDS011;684;48.342;10.096;2023-09-30T13:30:26;14.30;;;7.57;;
1380;SDS011;684;48.342;10.096;2023-09-30T13:32:53;16.63;;;7.40;;
1380;SDS011;684;48.342;10.096;2023-09-30T13:35:21;16.67;;;7.80;;
1380;SDS011;684;48.342;10.096;2023-09-30T13:37:49;14.70;;;7.93;;
1380;SDS011;684;48.342;10.096;2023-09-30T13:40:15;14.07;;;7.20;;
1380;SDS011;684;48.342;10.096;2023-09-30T13:42:42;14.83;;;8.00;;
1380;SDS011;684;48.342;10.096;2023-09-30T13:45:10;13.47;;;7.43;;
1380;SDS011;684;48.342;10.096;2023-09-30T13:47:37;12.50;;;7.53;;
1380;SDS011;684;48.342;10.096;2023-09-30T13:50:04;14.37;;;7.27;;
1380;SDS011;684;48.342;10.096;2023-09-30T13:52:33;15.60;;;7.80;;
1380;SDS011;684;48.342;10.096;2023-09-30T13:55:01;12.83;;;7.33;;
1380;SDS011;684;48.342;10.096;2023-09-30T13:57:29;14.93;;;8.90;;
1380;SDS011;684;48.342;10.096;2023-09-30T13:59:56;14.30;;;8.20;;
1380;SDS011;684;48.342;10.096;2023-09-30T14:02:23;15.80;;;7.33;;
1380;SDS011;684;48.342;10.096;2023-09-30T14:04:50;16.40;;;8.90;;
1380;SDS011;684;48.342;10.096;2023-09-30T14:07:18;15.13;;;8.17;;
1380;SDS011;684;48.342;10.096;2023-09-30T14:09:45;13.53;;;7.97;;
1380;SDS011;684;48.342;10.096;2023-09-30T14:12:14;15.20;;;7.53;;
1380;SDS011;684;48.342;10.096;2023-09-30T14:14:40;11.30;;;6.50;;
1380;SDS011;684;48.342;10.096;2023-09-30T14:17:07;15.90;;;7.60;;
1380;SDS011;684;48.342;10.096;2023-09-30T14:19:36;14.20;;;7.73;;
1380;SDS011;684;48.342;10.096;2023-09-30T14:22:04;15.37;;;8.03;;
1380;SDS011;684;48.342;10.096;2023-09-30T14:24:31;15.27;;;7.47;;
1380;SDS011;684;48.342;10.096;2023-09-30T14:26:58;17.63;;;7.80;;
1380;SDS011;684;48.342;10.096;2023-09-30T14:29:26;16.17;;;7.30;;
1380;SDS011;684;48.342;10.096;2023-09-30T14:31:53;12.23;;;6.97;;
1380;SDS011;684;48.342;10.096;2023-09-30T14:34:22;13.43;;;7.30;;
1380;SDS011;684;48.342;10.096;2023-09-30T14:36:49;15.83;;;7.10;;
1380;SDS011;684;48.342;10.096;2023-09-30T14:39:16;20.80;;;8.20;;
1380;SDS011;684;48.342;10.096;2023-09-30T14:41:43;17.27;;;7.97;;
1380;SDS011;684;48.342;10.096;2023-09-30T14:44:11;15.47;;;7.57;;
1380;SDS011;684;48.342;10.096;2023-09-30T14:46:39;14.43;;;7.67;;
1380;SDS011;684;48.342;10.096;2023-09-30T14:49:06;18.50;;;9.17;;
1380;SDS011;684;48.342;10.096;2023-09-30T14:51:33;15.53;;;8.37;;
1380;SDS011;684;48.342;10.096;2023-09-30T14:53:59;14.73;;;8.40;;
1380;SDS011;684;48.342;10.096;2023-09-30T14:56:26;15.20;;;8.40;;
1380;SDS011;684;48.342;10.096;2023-09-30T14:58:53;14.60;;;8.13;;
1380;SDS011;684;48.342;10.096;2023-09-30T15:01:20;16.10;;;8.03;;
1380;SDS011;684;48.342;10.096;2023-09-30T15:03:48;13.33;;;7.73;;
1380;SDS011;684;48.342;10.096;2023-09-30T15:06:15;18.63;;;9.43;;
1380;SDS011;684;48.342;10.096;2023-09-30T15:08:41;14.97;;;8.03;;
1380;SDS011;684;48.342;10.096;2023-09-30T15:11:12;14.10;;;7.80;;
1380;SDS011;684;48.342;10.096;2023-09-30T15:13:40;17.03;;;8.47;;
1380;SDS011;684;48.342;10.096;2023-09-30T15:16:13;17.37;;;9.00;;
1380;SDS011;684;48.342;10.096;2023-09-30T15:18:41;17.60;;;9.00;;
1380;SDS011;684;48.342;10.096;2023-09-30T15:21:09;15.33;;;8.00;;